createdAt,value
2018-11-22T00:03:04.237Z,52.90
2018-11-22T00:05:52.915Z,47.43
2018-11-22T00:08:41.424Z,47.00
2018-11-22T00:11:29.926Z,43.67
2018-11-22T00:14:37.709Z,48.50
2018-11-22T00:17:26.606Z,52.30
2018-11-22T00:20:15.316Z,52.67
2018-11-22T00:23:04.147Z,51.13
2018-11-22T00:25:52.959Z,50.47
2018-11-22T00:28:41.527Z,51.07
2018-11-22T00:31:30.057Z,47.17
2018-11-22T00:37:13.258Z,45.23
2018-11-22T00:40:01.838Z,57.23
2018-11-22T00:42:50.686Z,57.87
2018-11-22T00:45:39.530Z,51.33
2018-11-22T00:48:28.005Z,52.53
2018-11-22T00:51:16.500Z,48.93
2018-11-22T00:54:05.047Z,53.47
2018-11-22T00:56:53.768Z,46.30
2018-11-22T01:02:37.297Z,53.00
2018-11-22T01:05:26.701Z,53.27
2018-11-22T01:08:15.206Z,53.80
2018-11-22T01:11:03.979Z,52.60
2018-11-22T01:13:52.489Z,57.23
2018-11-22T01:16:40.953Z,49.67
2018-11-22T01:19:29.441Z,48.47
2018-11-22T01:22:18.171Z,46.73
2018-11-22T01:25:07.964Z,51.53
2018-11-22T01:27:56.471Z,50.83
2018-11-22T01:30:44.954Z,49.73
2018-11-22T01:33:33.481Z,49.53
2018-11-22T01:36:22.259Z,51.57
2018-11-22T01:39:11.767Z,50.53
2018-11-22T01:42:00.300Z,45.17
2018-11-22T01:44:49.338Z,49.40
2018-11-22T01:47:38.240Z,46.47
2018-11-22T01:50:26.772Z,47.77
2018-11-22T01:56:08.962Z,44.70
2018-11-22T01:58:57.728Z,46.50
2018-11-22T02:01:46.212Z,45.73
2018-11-22T02:04:34.809Z,41.37
2018-11-22T02:07:23.251Z,43.27
2018-11-22T02:10:13.473Z,46.17
2018-11-22T02:13:01.950Z,48.33
2018-11-22T02:15:50.729Z,49.67
2018-11-22T02:18:39.412Z,49.70
2018-11-22T02:21:28.405Z,49.57
2018-11-22T02:24:16.879Z,51.23
2018-11-22T02:27:06.104Z,47.87
2018-11-22T02:29:54.722Z,46.07
2018-11-22T02:32:44.455Z,49.47
2018-11-22T02:35:32.868Z,46.93
2018-11-22T02:38:21.356Z,48.33
2018-11-22T02:41:09.824Z,52.23
2018-11-22T02:43:58.287Z,46.27
2018-11-22T02:46:46.772Z,48.77
2018-11-22T02:49:35.256Z,47.70
2018-11-22T02:52:23.722Z,43.33
2018-11-22T02:55:12.475Z,47.70
2018-11-22T02:58:00.976Z,52.10
2018-11-22T03:00:49.942Z,45.97
2018-11-22T03:03:38.463Z,49.00
2018-11-22T03:06:27.687Z,52.63
2018-11-22T03:09:16.460Z,49.77
2018-11-22T03:12:05.009Z,54.63
2018-11-22T03:14:53.490Z,53.17
2018-11-22T03:17:42.765Z,47.90
2018-11-22T03:20:31.264Z,54.90
2018-11-22T03:23:20.500Z,47.70
2018-11-22T03:26:08.984Z,48.67
2018-11-22T03:28:57.455Z,49.43
2018-11-22T03:31:46.359Z,58.13
2018-11-22T03:34:34.862Z,47.63
2018-11-22T03:37:23.667Z,56.53
2018-11-22T03:40:22.209Z,50.50
2018-11-22T03:43:10.693Z,49.07
2018-11-22T03:45:59.695Z,45.90
2018-11-22T03:48:48.267Z,52.57
2018-11-22T03:51:36.775Z,49.73
2018-11-22T03:54:25.733Z,48.27
2018-11-22T03:57:14.694Z,49.93
2018-11-22T04:00:03.240Z,49.23
2018-11-22T04:02:52.735Z,52.03
2018-11-22T04:05:41.682Z,53.83
2018-11-22T04:08:30.145Z,48.10
2018-11-22T04:11:18.647Z,51.43
2018-11-22T04:14:07.769Z,50.90
2018-11-22T04:16:56.231Z,49.63
2018-11-22T04:19:45.061Z,54.90
2018-11-22T04:22:33.945Z,55.13
2018-11-22T04:25:22.930Z,56.70
2018-11-22T04:28:12.140Z,49.67
2018-11-22T04:31:00.593Z,52.03
2018-11-22T04:33:49.071Z,50.50
2018-11-22T04:36:37.528Z,48.73
2018-11-22T04:39:26.477Z,46.90
2018-11-22T04:42:14.942Z,46.47
2018-11-22T04:45:03.507Z,53.53
2018-11-22T04:47:53.363Z,51.80
2018-11-22T04:50:41.843Z,54.87
2018-11-22T04:53:30.299Z,46.77
2018-11-22T04:56:18.772Z,51.83
2018-11-22T04:59:07.971Z,51.87
2018-11-22T05:01:56.454Z,49.33
2018-11-22T05:04:44.921Z,46.10
2018-11-22T05:07:33.403Z,44.10
2018-11-22T05:10:16.262Z,47.80
2018-11-22T05:13:04.907Z,53.87
2018-11-22T05:15:53.684Z,48.00
2018-11-22T05:18:42.163Z,46.80
2018-11-22T05:21:30.730Z,48.57
2018-11-22T05:24:19.332Z,55.13
2018-11-22T05:27:07.874Z,45.80
2018-11-22T05:29:57.133Z,50.40
2018-11-22T05:32:46.099Z,46.07
2018-11-22T05:35:34.930Z,48.77
2018-11-22T05:38:23.549Z,51.97
2018-11-22T05:41:12.039Z,47.63
2018-11-22T05:44:00.553Z,45.50
2018-11-22T05:46:49.345Z,50.07
2018-11-22T05:49:37.942Z,45.07
2018-11-22T05:52:26.477Z,47.03
2018-11-22T05:55:15.353Z,44.70
2018-11-22T05:58:03.903Z,45.87
2018-11-22T06:00:52.396Z,53.37
2018-11-22T06:03:41.365Z,53.67
2018-11-22T06:06:29.853Z,51.50
2018-11-22T06:09:18.610Z,52.13
2018-11-22T06:12:07.474Z,53.70
2018-11-22T06:15:15.264Z,47.87
2018-11-22T06:18:22.976Z,54.07
2018-11-22T06:21:12.180Z,53.03
2018-11-22T06:24:00.852Z,52.87
2018-11-22T06:26:49.836Z,49.47
2018-11-22T06:29:38.336Z,49.27
2018-11-22T06:32:27.143Z,50.90
2018-11-22T06:35:15.897Z,48.60
2018-11-22T06:38:04.366Z,52.20
2018-11-22T06:40:52.843Z,54.53
2018-11-22T06:43:41.308Z,47.40
2018-11-22T06:46:30.857Z,52.37
2018-11-22T06:49:19.639Z,48.53
2018-11-22T06:52:08.553Z,50.13
2018-11-22T06:54:57.504Z,50.03
2018-11-22T06:57:45.997Z,52.27
2018-11-22T07:03:29.137Z,47.60
2018-11-22T07:06:17.630Z,52.33
2018-11-22T07:09:07.580Z,55.17
2018-11-22T07:11:56.076Z,50.63
2018-11-22T07:14:44.578Z,45.70
2018-11-22T07:17:33.076Z,48.07
2018-11-22T07:20:23.423Z,53.53
2018-11-22T07:23:12.486Z,48.60
2018-11-22T07:26:00.939Z,50.27
2018-11-22T07:28:49.792Z,48.27
2018-11-22T07:31:38.202Z,47.37
2018-11-22T07:34:26.735Z,51.57
2018-11-22T07:37:15.358Z,50.17
2018-11-22T07:40:04.121Z,50.77
2018-11-22T07:42:52.788Z,47.37
2018-11-22T07:45:42.658Z,49.07
2018-11-22T07:48:31.612Z,50.07
2018-11-22T07:51:20.100Z,46.83
2018-11-22T07:54:08.566Z,49.43
2018-11-22T07:56:57.795Z,47.90
2018-11-22T07:59:46.722Z,46.90
2018-11-22T08:02:35.203Z,44.37
2018-11-22T08:05:24.614Z,47.67
2018-11-22T08:08:13.134Z,43.73
2018-11-22T08:11:01.615Z,43.13
2018-11-22T08:13:50.137Z,44.40
2018-11-22T08:16:38.652Z,40.13
2018-11-22T08:19:27.125Z,43.90
2018-11-22T08:22:15.752Z,44.07
2018-11-22T08:25:04.849Z,43.13
2018-11-22T08:27:53.735Z,39.20
2018-11-22T08:30:42.246Z,45.50
2018-11-22T08:33:31.211Z,40.97
2018-11-22T08:36:19.709Z,42.50
2018-11-22T08:39:09.697Z,41.17
2018-11-22T08:44:52.952Z,41.90
2018-11-22T08:47:41.515Z,41.30
2018-11-22T08:50:30.917Z,39.70
2018-11-22T08:53:19.435Z,47.87
2018-11-22T08:56:07.936Z,40.13
2018-11-22T08:58:56.425Z,40.40
2018-11-22T09:01:44.933Z,37.83
2018-11-22T09:07:21.065Z,42.87
2018-11-22T09:10:11.931Z,39.10
2018-11-22T09:13:01.204Z,40.47
2018-11-22T09:15:49.771Z,42.37
2018-11-22T09:18:57.831Z,42.23
2018-11-22T09:21:46.383Z,36.77
2018-11-22T09:24:35.582Z,40.63
2018-11-22T09:27:24.511Z,38.70
2018-11-22T09:30:35.642Z,39.73
2018-11-22T09:33:24.138Z,39.87
2018-11-22T09:36:12.869Z,41.93
2018-11-22T09:38:42.104Z,40.50
2018-11-22T09:41:11.081Z,41.43
2018-11-22T09:43:59.560Z,43.37
2018-11-22T09:46:48.431Z,41.60
2018-11-22T09:49:37.446Z,42.27
2018-11-22T09:52:25.940Z,42.97
2018-11-22T09:55:15.170Z,43.93
2018-11-22T09:58:03.653Z,45.40
2018-11-22T10:00:52.181Z,38.93
2018-11-22T10:03:40.682Z,41.37
2018-11-22T10:06:29.161Z,45.80
2018-11-22T10:09:17.888Z,45.37
2018-11-22T10:12:06.392Z,45.13
2018-11-22T10:15:14.496Z,41.80
2018-11-22T10:18:03.013Z,47.03
2018-11-22T10:20:51.697Z,47.97
2018-11-22T10:23:40.180Z,40.47
2018-11-22T10:26:28.697Z,44.00
2018-11-22T10:29:17.283Z,41.47
2018-11-22T10:32:05.736Z,43.80
2018-11-22T10:34:55.202Z,42.97
2018-11-22T10:37:44.227Z,47.07
2018-11-22T10:40:15.016Z,45.90
2018-11-22T10:45:52.512Z,44.37
2018-11-22T10:48:41.992Z,44.83
2018-11-22T10:51:11.039Z,47.90
2018-11-22T10:53:40.295Z,48.97
2018-11-22T10:56:09.465Z,50.37
2018-11-22T10:58:38.473Z,46.20
2018-11-22T11:04:52.826Z,46.00
2018-11-22T11:07:48.324Z,44.37
2018-11-22T11:10:17.935Z,52.60
2018-11-22T11:12:47.834Z,47.73
2018-11-22T11:15:17.633Z,44.60
2018-11-22T11:18:06.235Z,49.77
2018-11-22T11:20:54.696Z,49.60
2018-11-22T11:23:43.186Z,49.97
2018-11-22T11:26:32.091Z,48.70
2018-11-22T11:29:20.730Z,45.13
2018-11-22T11:32:09.222Z,51.50
2018-11-22T11:34:57.733Z,52.07
2018-11-22T11:37:46.210Z,51.13
2018-11-22T11:40:36.238Z,51.47
2018-11-22T11:43:25.000Z,48.97
2018-11-22T11:46:14.681Z,50.30
2018-11-22T11:48:44.101Z,45.63
2018-11-22T11:51:13.104Z,51.33
2018-11-22T11:53:42.358Z,55.13
2018-11-22T11:56:11.787Z,49.67
2018-11-22T11:59:00.253Z,51.00
2018-11-22T12:01:49.043Z,51.73
2018-11-22T12:04:37.545Z,50.47
2018-11-22T12:07:26.081Z,46.70
2018-11-22T12:10:16.086Z,48.70
2018-11-22T12:13:04.582Z,50.13
2018-11-22T12:15:53.204Z,57.17
2018-11-22T12:18:42.129Z,46.43
2018-11-22T12:21:30.906Z,43.80
2018-11-22T12:24:19.481Z,47.70
2018-11-22T12:27:07.959Z,48.10
2018-11-22T12:29:57.006Z,53.60
2018-11-22T12:33:04.631Z,48.53
2018-11-22T12:36:12.351Z,49.10
2018-11-22T12:39:01.299Z,46.40
2018-11-22T12:41:49.808Z,52.00
2018-11-22T12:44:38.335Z,47.63
2018-11-22T12:47:27.098Z,49.53
2018-11-22T12:50:16.123Z,50.13
2018-11-22T12:53:23.856Z,48.37
2018-11-22T12:56:12.630Z,48.07
2018-11-22T12:59:01.123Z,52.37
2018-11-22T13:01:49.694Z,51.87
2018-11-22T13:04:38.251Z,54.07
2018-11-22T13:07:27.037Z,47.60
2018-11-22T13:10:16.733Z,51.53
2018-11-22T13:13:05.498Z,54.07
2018-11-22T13:15:54.062Z,47.30
2018-11-22T13:18:42.584Z,52.20
2018-11-22T13:21:31.152Z,52.50
2018-11-22T13:24:19.593Z,50.60
2018-11-22T13:27:08.132Z,50.00
2018-11-22T13:29:56.661Z,51.93
2018-11-22T13:35:53.577Z,50.50
2018-11-22T13:38:42.655Z,50.97
2018-11-22T13:41:31.343Z,53.13
2018-11-22T13:44:19.990Z,50.87
2018-11-22T13:47:08.496Z,49.43
2018-11-22T13:49:56.998Z,49.97
2018-11-22T13:52:46.533Z,55.20
2018-11-22T13:55:35.038Z,49.87
2018-11-22T13:58:23.570Z,49.63
2018-11-22T14:01:12.286Z,50.43
2018-11-22T14:04:01.796Z,51.00
2018-11-22T14:06:30.843Z,53.00
2018-11-22T14:09:00.195Z,53.10
2018-11-22T14:11:29.676Z,48.40
2018-11-22T14:13:58.751Z,57.03
2018-11-22T14:16:28.094Z,58.43
2018-11-22T14:19:16.589Z,60.87
2018-11-22T14:22:05.681Z,53.17
2018-11-22T14:24:54.154Z,51.87
2018-11-22T14:27:43.430Z,59.70
2018-11-22T14:30:33.742Z,57.33
2018-11-22T14:33:22.324Z,60.90
2018-11-22T14:36:11.432Z,59.87
2018-11-22T14:38:59.930Z,59.70
2018-11-22T14:41:48.929Z,55.50
2018-11-22T14:44:18.591Z,55.87
2018-11-22T14:46:47.596Z,55.43
2018-11-22T14:49:17.146Z,58.10
2018-11-22T14:52:06.367Z,59.27
2018-11-22T14:54:54.876Z,60.33
2018-11-22T14:57:43.367Z,55.80
2018-11-22T15:00:32.188Z,55.17
2018-11-22T15:03:20.826Z,63.40
2018-11-22T15:05:49.822Z,56.30
2018-11-22T15:08:18.987Z,61.00
2018-11-22T15:10:48.020Z,53.87
2018-11-22T15:13:36.798Z,57.97
2018-11-22T15:16:27.506Z,66.60
2018-11-22T15:19:17.764Z,57.50
2018-11-22T15:22:06.560Z,60.67
2018-11-22T15:24:55.162Z,65.77
2018-11-22T15:27:44.246Z,58.47
2018-11-22T15:30:32.799Z,63.43
2018-11-22T15:33:21.865Z,60.93
2018-11-22T15:36:10.677Z,59.20
2018-11-22T15:38:59.208Z,60.00
2018-11-22T15:41:40.356Z,60.50
2018-11-22T15:44:28.875Z,57.93
2018-11-22T15:47:17.381Z,56.70
2018-11-22T15:50:07.883Z,56.47
2018-11-22T15:52:37.004Z,57.43
2018-11-22T15:55:06.741Z,58.40
2018-11-22T15:57:36.457Z,57.63
2018-11-22T16:00:09.521Z,58.73
2018-11-22T16:02:38.503Z,58.67
2018-11-22T16:05:08.899Z,61.33
2018-11-22T16:07:37.903Z,54.80
2018-11-22T16:10:10.943Z,54.17
2018-11-22T16:12:40.186Z,60.47
2018-11-22T16:15:49.994Z,54.93
2018-11-22T16:18:38.749Z,56.27
2018-11-22T16:21:27.271Z,56.03
2018-11-22T16:24:15.869Z,55.43
2018-11-22T16:27:04.494Z,53.93
2018-11-22T16:29:52.958Z,57.70
2018-11-22T16:32:41.722Z,53.43
2018-11-22T16:35:33.541Z,59.37
2018-11-22T16:38:19.218Z,53.30
2018-11-22T16:41:07.683Z,59.13
2018-11-22T16:43:59.614Z,56.33
2018-11-22T16:47:04.505Z,58.57
2018-11-22T16:49:52.962Z,53.77
2018-11-22T16:52:42.254Z,56.57
2018-11-22T16:55:30.713Z,58.23
2018-11-22T16:58:19.251Z,59.60
2018-11-22T17:01:08.424Z,57.07
2018-11-22T17:03:37.919Z,52.57
2018-11-22T17:06:26.383Z,57.27
2018-11-22T17:09:14.852Z,60.87
2018-11-22T17:12:03.351Z,55.70
2018-11-22T17:14:52.266Z,55.40
2018-11-22T17:17:40.752Z,56.27
2018-11-22T17:20:30.540Z,57.50
2018-11-22T17:23:19.097Z,53.97
2018-11-22T17:26:07.583Z,46.13
2018-11-22T17:28:56.068Z,54.70
2018-11-22T17:31:44.911Z,52.37
2018-11-22T17:34:33.836Z,55.43
2018-11-22T17:37:22.299Z,53.97
2018-11-22T17:40:16.562Z,54.57
2018-11-22T17:43:05.522Z,53.43
2018-11-22T17:45:54.018Z,55.47
2018-11-22T17:48:42.494Z,54.37
2018-11-22T17:51:31.100Z,55.87
2018-11-22T17:54:19.563Z,54.73
2018-11-22T17:57:08.329Z,52.63
2018-11-22T17:59:37.305Z,56.37
2018-11-22T18:02:06.790Z,51.37
2018-11-22T18:04:35.806Z,58.03
2018-11-22T18:07:06.192Z,56.80
2018-11-22T18:09:35.165Z,62.70
2018-11-22T18:12:04.187Z,60.60
2018-11-22T18:14:33.165Z,57.60
2018-11-22T18:17:02.374Z,60.77
2018-11-22T18:19:31.385Z,65.43
2018-11-22T18:22:00.633Z,70.27
2018-11-22T18:24:29.650Z,65.47
2018-11-22T18:26:58.663Z,64.73
2018-11-22T18:29:27.603Z,68.33
2018-11-22T18:31:56.865Z,71.00
2018-11-22T18:34:45.669Z,64.77
2018-11-22T18:37:34.517Z,74.57
2018-11-22T18:40:24.312Z,72.47
2018-11-22T18:43:13.333Z,65.07
2018-11-22T18:46:01.833Z,64.37
2018-11-22T18:48:50.860Z,76.13
2018-11-22T18:51:20.321Z,70.10
2018-11-22T18:53:49.341Z,69.93
2018-11-22T18:56:18.526Z,69.93
2018-11-22T18:58:47.632Z,71.33
2018-11-22T19:01:16.717Z,67.87
2018-11-22T19:03:46.588Z,76.13
2018-11-22T19:06:16.013Z,69.37
2018-11-22T19:08:45.177Z,76.13
2018-11-22T19:11:14.273Z,71.63
2018-11-22T19:13:43.259Z,80.60
2018-11-22T19:16:12.745Z,67.30
2018-11-22T19:18:41.842Z,64.67
2018-11-22T19:21:11.083Z,67.37
2018-11-22T19:23:40.174Z,67.43
2018-11-22T19:26:09.330Z,71.23
2018-11-22T19:28:38.309Z,70.63
2018-11-22T19:31:07.266Z,77.53
2018-11-22T19:33:36.365Z,68.17
2018-11-22T19:36:05.562Z,72.37
2018-11-22T19:38:34.837Z,70.43
2018-11-22T19:41:04.237Z,73.27
2018-11-22T19:43:33.247Z,79.10
2018-11-22T19:46:02.314Z,70.43
2018-11-22T19:48:32.763Z,79.93
2018-11-22T19:51:05.609Z,76.43
2018-11-22T19:53:30.508Z,69.43
2018-11-22T19:55:59.466Z,75.67
2018-11-22T19:58:28.505Z,72.87
2018-11-22T20:00:57.463Z,70.60
2018-11-22T20:03:26.872Z,75.10
2018-11-22T20:05:55.870Z,84.00
2018-11-22T20:08:24.872Z,86.37
2018-11-22T20:10:54.201Z,77.13
2018-11-22T20:13:23.469Z,76.97
2018-11-22T20:15:52.853Z,64.00
2018-11-22T20:18:22.183Z,63.20
2018-11-22T20:20:51.561Z,62.83
2018-11-22T20:23:21.848Z,61.77
2018-11-22T20:25:49.825Z,63.30
2018-11-22T20:28:18.797Z,70.27
2018-11-22T20:30:48.204Z,84.40
2018-11-22T20:33:17.178Z,62.53
2018-11-22T20:35:46.315Z,63.43
2018-11-22T20:38:15.331Z,59.43
2018-11-22T20:43:58.260Z,73.47
2018-11-22T20:46:46.766Z,70.30
2018-11-22T20:49:35.268Z,104.30
2018-11-22T20:52:23.771Z,101.30
2018-11-22T20:55:15.390Z,65.27
2018-11-22T20:58:05.227Z,69.47
2018-11-22T21:00:54.287Z,81.10
2018-11-22T21:03:42.825Z,73.47
2018-11-22T21:06:31.293Z,70.20
2018-11-22T21:09:19.836Z,62.10
2018-11-22T21:12:08.362Z,62.47
2018-11-22T21:15:17.479Z,58.60
2018-11-22T21:17:47.933Z,55.37
2018-11-22T21:20:20.396Z,59.23
2018-11-22T21:23:10.611Z,62.73
2018-11-22T21:25:59.943Z,59.97
2018-11-22T21:28:49.502Z,61.83
2018-11-22T21:31:38.011Z,61.03
2018-11-22T21:34:27.300Z,62.50
2018-11-22T21:37:16.943Z,61.07
2018-11-22T21:40:06.404Z,55.80
2018-11-22T21:42:55.583Z,69.07
2018-11-22T21:45:26.203Z,63.97
2018-11-22T21:47:55.397Z,61.00
2018-11-22T21:50:44.988Z,60.73
2018-11-22T21:53:14.039Z,58.37
2018-11-22T21:55:43.289Z,57.37
2018-11-22T21:58:32.683Z,55.40
2018-11-22T22:01:22.164Z,54.87
2018-11-22T22:04:30.380Z,49.50
2018-11-22T22:07:38.634Z,54.23
2018-11-22T22:10:28.073Z,52.50
2018-11-22T22:12:59.328Z,47.83
2018-11-22T22:15:29.566Z,51.43
2018-11-22T22:17:59.489Z,53.70
2018-11-22T22:20:30.075Z,51.83
2018-11-22T22:22:59.799Z,52.33
2018-11-22T22:25:29.546Z,53.07
2018-11-22T22:28:02.010Z,53.67
2018-11-22T22:30:33.130Z,50.90
2018-11-22T22:33:06.655Z,54.53
2018-11-22T22:35:36.894Z,49.60
2018-11-22T22:38:08.710Z,50.63
2018-11-22T22:40:38.332Z,47.00
2018-11-22T22:43:07.990Z,50.00
2018-11-22T22:45:36.943Z,48.63
2018-11-22T22:48:05.976Z,50.80
2018-11-22T22:50:35.297Z,48.37
2018-11-22T22:53:04.538Z,46.23
2018-11-22T22:55:33.746Z,51.17
2018-11-22T22:58:02.795Z,46.07
2018-11-22T23:00:50.730Z,48.53
2018-11-22T23:03:19.786Z,43.13
2018-11-22T23:05:48.996Z,45.57
2018-11-22T23:08:18.019Z,48.93
2018-11-22T23:10:47.076Z,45.47
2018-11-22T23:13:16.226Z,54.97
2018-11-22T23:15:45.374Z,48.33
2018-11-22T23:18:15.205Z,49.43
2018-11-22T23:20:44.148Z,46.87
2018-11-22T23:23:13.430Z,51.00
2018-11-22T23:25:42.466Z,46.63
2018-11-22T23:28:11.502Z,52.67
2018-11-22T23:30:40.550Z,50.57
2018-11-22T23:33:10.215Z,48.07
2018-11-22T23:35:39.391Z,45.60
2018-11-22T23:38:08.530Z,48.27
2018-11-22T23:40:37.805Z,44.23
2018-11-22T23:43:06.921Z,46.33
2018-11-22T23:45:35.977Z,46.83
2018-11-22T23:48:09.807Z,51.83
2018-11-22T23:50:41.298Z,50.80
2018-11-22T23:53:10.583Z,48.53
2018-11-22T23:55:40.103Z,47.73
2018-11-22T23:58:09.076Z,45.30
